sensor_id;sensor_type;location;lat;lon;timestamp;P1;durP1;ratioP1;P2;durP2;ratioP2
22284;SDS011;11311;52.192;20.900;2023-08-31T00:00:12;10.82;;;9.82;;
22284;SDS011;11311;52.192;20.900;2023-08-31T00:02:42;11.02;;;10.02;;
22284;SDS011;11311;52.192;20.900;2023-08-31T00:05:11;9.82;;;8.90;;
22284;SDS011;11311;52.192;20.900;2023-08-31T00:07:41;9.82;;;8.93;;
22284;SDS011;11311;52.192;20.900;2023-08-31T00:10:10;10.40;;;9.35;;
22284;SDS011;11311;52.192;20.900;2023-08-31T00:12:39;10.30;;;9.23;;
22284;SDS011;11311;52.192;20.900;2023-08-31T00:15:09;11.35;;;8.98;;
22284;SDS011;11311;52.192;20.900;2023-08-31T00:17:38;11.30;;;8.60;;
22284;SDS011;11311;52.192;20.900;2023-08-31T00:20:07;10.02;;;8.43;;
22284;SDS011;11311;52.192;20.900;2023-08-31T00:22:38;9.60;;;8.75;;
22284;SDS011;11311;52.192;20.900;2023-08-31T00:25:09;9.48;;;8.63;;
22284;SDS011;11311;52.192;20.900;2023-08-31T00:30:09;10.75;;;8.63;;
22284;SDS011;11311;52.192;20.900;2023-08-31T00:32:41;8.60;;;7.60;;
22284;SDS011;11311;52.192;20.900;2023-08-31T00:35:10;9.50;;;8.60;;
22284;SDS011;11311;52.192;20.900;2023-08-31T00:37:39;9.75;;;8.85;;
22284;SDS011;11311;52.192;20.900;2023-08-31T00:40:10;8.70;;;8.00;;
22284;SDS011;11311;52.192;20.900;2023-08-31T00:42:41;10.60;;;7.70;;
22284;SDS011;11311;52.192;20.900;2023-08-31T00:45:09;8.82;;;8.10;;
22284;SDS011;11311;52.192;20.900;2023-08-31T00:47:38;8.30;;;7.47;;
22284;SDS011;11311;52.192;20.900;2023-08-31T00:50:07;9.00;;;7.32;;
22284;SDS011;11311;52.192;20.900;2023-08-31T00:52:37;8.02;;;7.32;;
22284;SDS011;11311;52.192;20.900;2023-08-31T00:55:06;8.93;;;8.02;;
22284;SDS011;11311;52.192;20.900;2023-08-31T00:57:37;8.67;;;7.70;;
22284;SDS011;11311;52.192;20.900;2023-08-31T01:00:06;8.63;;;7.63;;
22284;SDS011;11311;52.192;20.900;2023-08-31T01:02:38;13.10;;;7.60;;
22284;SDS011;11311;52.192;20.900;2023-08-31T01:05:21;8.98;;;7.07;;
22284;SDS011;11311;52.192;20.900;2023-08-31T01:07:57;8.07;;;7.38;;
22284;SDS011;11311;52.192;20.900;2023-08-31T01:10:32;7.93;;;6.80;;
22284;SDS011;11311;52.192;20.900;2023-08-31T01:13:07;7.65;;;6.90;;
22284;SDS011;11311;52.192;20.900;2023-08-31T01:15:41;8.65;;;6.93;;
22284;SDS011;11311;52.192;20.900;2023-08-31T01:18:14;7.78;;;6.30;;
22284;SDS011;11311;52.192;20.900;2023-08-31T01:20:45;9.25;;;6.88;;
22284;SDS011;11311;52.192;20.900;2023-08-31T01:23:19;7.45;;;6.85;;
22284;SDS011;11311;52.192;20.900;2023-08-31T01:25:49;8.70;;;6.53;;
22284;SDS011;11311;52.192;20.900;2023-08-31T01:28:18;7.13;;;6.63;;
22284;SDS011;11311;52.192;20.900;2023-08-31T01:30:47;10.18;;;7.25;;
22284;SDS011;11311;52.192;20.900;2023-08-31T01:38:18;7.57;;;6.88;;
22284;SDS011;11311;52.192;20.900;2023-08-31T01:40:50;8.23;;;7.47;;
22284;SDS011;11311;52.192;20.900;2023-08-31T01:43:23;8.75;;;7.53;;
22284;SDS011;11311;52.192;20.900;2023-08-31T01:45:53;8.52;;;7.45;;
22284;SDS011;11311;52.192;20.900;2023-08-31T01:48:22;7.85;;;6.85;;
22284;SDS011;11311;52.192;20.900;2023-08-31T01:50:52;8.95;;;7.57;;
22284;SDS011;11311;52.192;20.900;2023-08-31T01:53:21;12.10;;;9.38;;
22284;SDS011;11311;52.192;20.900;2023-08-31T01:55:50;8.60;;;7.75;;
22284;SDS011;11311;52.192;20.900;2023-08-31T01:58:20;8.18;;;7.30;;
22284;SDS011;11311;52.192;20.900;2023-08-31T02:00:50;8.48;;;7.78;;
22284;SDS011;11311;52.192;20.900;2023-08-31T02:03:18;11.65;;;6.82;;
22284;SDS011;11311;52.192;20.900;2023-08-31T02:05:47;8.73;;;7.20;;
22284;SDS011;11311;52.192;20.900;2023-08-31T02:08:16;7.80;;;7.15;;
22284;SDS011;11311;52.192;20.900;2023-08-31T02:10:45;7.72;;;7.00;;
22284;SDS011;11311;52.192;20.900;2023-08-31T02:13:23;11.25;;;8.27;;
22284;SDS011;11311;52.192;20.900;2023-08-31T02:18:21;9.38;;;6.47;;
22284;SDS011;11311;52.192;20.900;2023-08-31T02:20:51;8.13;;;7.50;;
22284;SDS011;11311;52.192;20.900;2023-08-31T02:25:48;7.90;;;7.18;;
22284;SDS011;11311;52.192;20.900;2023-08-31T02:28:17;7.82;;;7.15;;
22284;SDS011;11311;52.192;20.900;2023-08-31T02:30:56;8.00;;;6.93;;
22284;SDS011;11311;52.192;20.900;2023-08-31T02:33:31;8.10;;;6.68;;
22284;SDS011;11311;52.192;20.900;2023-08-31T02:38:29;12.80;;;7.60;;
22284;SDS011;11311;52.192;20.900;2023-08-31T02:40:58;7.80;;;7.03;;
22284;SDS011;11311;52.192;20.900;2023-08-31T02:43:27;7.22;;;6.53;;
22284;SDS011;11311;52.192;20.900;2023-08-31T02:46:01;8.52;;;7.30;;
22284;SDS011;11311;52.192;20.900;2023-08-31T02:48:32;7.57;;;6.97;;
22284;SDS011;11311;52.192;20.900;2023-08-31T02:51:01;8.80;;;6.97;;
22284;SDS011;11311;52.192;20.900;2023-08-31T02:53:30;9.55;;;6.95;;
22284;SDS011;11311;52.192;20.900;2023-08-31T02:55:59;7.50;;;6.85;;
22284;SDS011;11311;52.192;20.900;2023-08-31T02:58:29;8.20;;;7.22;;
22284;SDS011;11311;52.192;20.900;2023-08-31T03:01:09;8.20;;;7.43;;
22284;SDS011;11311;52.192;20.900;2023-08-31T03:03:43;8.85;;;7.95;;
22284;SDS011;11311;52.192;20.900;2023-08-31T03:08:42;10.75;;;8.73;;
22284;SDS011;11311;52.192;20.900;2023-08-31T03:11:11;9.48;;;8.68;;
22284;SDS011;11311;52.192;20.900;2023-08-31T03:13:42;9.60;;;8.68;;
22284;SDS011;11311;52.192;20.900;2023-08-31T03:16:13;9.93;;;9.05;;
22284;SDS011;11311;52.192;20.900;2023-08-31T03:18:42;10.27;;;9.18;;
22284;SDS011;11311;52.192;20.900;2023-08-31T03:21:12;10.40;;;9.35;;
22284;SDS011;11311;52.192;20.900;2023-08-31T03:23:41;9.82;;;8.98;;
22284;SDS011;11311;52.192;20.900;2023-08-31T03:26:09;8.52;;;7.82;;
22284;SDS011;11311;52.192;20.900;2023-08-31T03:28:38;9.10;;;8.20;;
22284;SDS011;11311;52.192;20.900;2023-08-31T03:31:08;9.43;;;8.55;;
22284;SDS011;11311;52.192;20.900;2023-08-31T03:33:38;11.35;;;8.43;;
22284;SDS011;11311;52.192;20.900;2023-08-31T03:36:07;8.43;;;7.60;;
22284;SDS011;11311;52.192;20.900;2023-08-31T03:38:36;7.97;;;7.28;;
22284;SDS011;11311;52.192;20.900;2023-08-31T03:41:08;12.60;;;7.18;;
22284;SDS011;11311;52.192;20.900;2023-08-31T03:43:38;7.78;;;6.57;;
22284;SDS011;11311;52.192;20.900;2023-08-31T03:46:07;7.15;;;6.45;;
22284;SDS011;11311;52.192;20.900;2023-08-31T03:48:36;9.10;;;6.40;;
22284;SDS011;11311;52.192;20.900;2023-08-31T03:51:07;6.88;;;6.28;;
22284;SDS011;11311;52.192;20.900;2023-08-31T03:53:35;6.88;;;6.38;;
22284;SDS011;11311;52.192;20.900;2023-08-31T03:56:04;7.05;;;5.65;;
22284;SDS011;11311;52.192;20.900;2023-08-31T03:58:33;6.38;;;5.78;;
22284;SDS011;11311;52.192;20.900;2023-08-31T04:01:02;6.88;;;6.28;;
22284;SDS011;11311;52.192;20.900;2023-08-31T04:03:32;6.50;;;5.90;;
22284;SDS011;11311;52.192;20.900;2023-08-31T04:06:02;10.50;;;6.47;;
22284;SDS011;11311;52.192;20.900;2023-08-31T04:11:03;7.55;;;5.93;;
22284;SDS011;11311;52.192;20.900;2023-08-31T04:13:32;7.15;;;6.63;;
22284;SDS011;11311;52.192;20.900;2023-08-31T04:16:00;8.52;;;6.07;;
22284;SDS011;11311;52.192;20.900;2023-08-31T04:18:30;6.00;;;5.47;;
22284;SDS011;11311;52.192;20.900;2023-08-31T04:20:59;6.13;;;5.53;;
22284;SDS011;11311;52.192;20.900;2023-08-31T04:23:31;6.50;;;5.15;;
22284;SDS011;11311;52.192;20.900;2023-08-31T04:26:02;7.03;;;5.53;;
22284;SDS011;11311;52.192;20.900;2023-08-31T04:28:38;5.45;;;4.93;;
22284;SDS011;11311;52.192;20.900;2023-08-31T04:33:37;6.35;;;5.38;;
22284;SDS011;11311;52.192;20.900;2023-08-31T04:36:06;5.53;;;5.03;;
22284;SDS011;11311;52.192;20.900;2023-08-31T04:38:35;5.78;;;5.25;;
22284;SDS011;11311;52.192;20.900;2023-08-31T04:41:07;10.90;;;6.20;;
22284;SDS011;11311;52.192;20.900;2023-08-31T04:43:36;6.47;;;5.97;;
22284;SDS011;11311;52.192;20.900;2023-08-31T04:46:04;7.28;;;6.57;;
22284;SDS011;11311;52.192;20.900;2023-08-31T04:48:33;6.82;;;6.22;;
22284;SDS011;11311;52.192;20.900;2023-08-31T04:51:03;6.50;;;5.97;;
22284;SDS011;11311;52.192;20.900;2023-08-31T04:53:32;6.63;;;6.00;;
22284;SDS011;11311;52.192;20.900;2023-08-31T04:56:01;7.18;;;6.55;;
22284;SDS011;11311;52.192;20.900;2023-08-31T04:58:31;7.20;;;6.53;;
22284;SDS011;11311;52.192;20.900;2023-08-31T05:01:00;6.20;;;5.60;;
22284;SDS011;11311;52.192;20.900;2023-08-31T05:03:28;6.95;;;6.35;;
22284;SDS011;11311;52.192;20.900;2023-08-31T05:05:57;6.28;;;5.78;;
22284;SDS011;11311;52.192;20.900;2023-08-31T05:08:26;7.25;;;6.55;;
22284;SDS011;11311;52.192;20.900;2023-08-31T05:10:55;6.68;;;6.07;;
22284;SDS011;11311;52.192;20.900;2023-08-31T05:13:23;7.53;;;6.13;;
22284;SDS011;11311;52.192;20.900;2023-08-31T05:15:54;10.23;;;6.20;;
22284;SDS011;11311;52.192;20.900;2023-08-31T05:18:23;12.20;;;6.10;;
22284;SDS011;11311;52.192;20.900;2023-08-31T05:20:51;14.05;;;6.47;;
22284;SDS011;11311;52.192;20.900;2023-08-31T05:23:20;6.20;;;5.50;;
22284;SDS011;11311;52.192;20.900;2023-08-31T05:25:49;8.13;;;6.10;;
22284;SDS011;11311;52.192;20.900;2023-08-31T05:28:18;7.03;;;5.22;;
22284;SDS011;11311;52.192;20.900;2023-08-31T05:30:47;8.43;;;5.78;;
22284;SDS011;11311;52.192;20.900;2023-08-31T05:33:19;6.05;;;5.00;;
22284;SDS011;11311;52.192;20.900;2023-08-31T05:35:49;6.50;;;5.63;;
22284;SDS011;11311;52.192;20.900;2023-08-31T05:38:18;6.07;;;5.43;;
22284;SDS011;11311;52.192;20.900;2023-08-31T05:40:46;5.50;;;5.05;;
22284;SDS011;11311;52.192;20.900;2023-08-31T05:43:16;6.72;;;4.50;;
22284;SDS011;11311;52.192;20.900;2023-08-31T05:45:46;5.53;;;4.20;;
22284;SDS011;11311;52.192;20.900;2023-08-31T05:48:17;6.60;;;3.78;;
22284;SDS011;11311;52.192;20.900;2023-08-31T05:53:16;4.13;;;3.72;;
22284;SDS011;11311;52.192;20.900;2023-08-31T05:55:45;3.65;;;3.35;;
22284;SDS011;11311;52.192;20.900;2023-08-31T05:58:14;3.70;;;3.35;;
22284;SDS011;11311;52.192;20.900;2023-08-31T06:00:43;3.38;;;3.05;;
22284;SDS011;11311;52.192;20.900;2023-08-31T06:03:12;3.85;;;3.08;;
22284;SDS011;11311;52.192;20.900;2023-08-31T06:05:43;5.60;;;3.65;;
22284;SDS011;11311;52.192;20.900;2023-08-31T06:08:14;2.75;;;2.55;;
22284;SDS011;11311;52.192;20.900;2023-08-31T06:10:42;3.70;;;2.50;;
22284;SDS011;11311;52.192;20.900;2023-08-31T06:13:11;2.83;;;2.22;;
22284;SDS011;11311;52.192;20.900;2023-08-31T06:15:40;2.58;;;2.38;;
22284;SDS011;11311;52.192;20.900;2023-08-31T06:18:09;4.45;;;2.58;;
22284;SDS011;11311;52.192;20.900;2023-08-31T06:20:38;4.40;;;2.95;;
22284;SDS011;11311;52.192;20.900;2023-08-31T06:23:09;4.90;;;2.90;;
22284;SDS011;11311;52.192;20.900;2023-08-31T06:25:40;3.00;;;2.53;;
22284;SDS011;11311;52.192;20.900;2023-08-31T06:28:09;5.85;;;2.40;;
22284;SDS011;11311;52.192;20.900;2023-08-31T06:30:38;8.87;;;2.60;;
22284;SDS011;11311;52.192;20.900;2023-08-31T06:33:11;4.85;;;2.15;;
22284;SDS011;11311;52.192;20.900;2023-08-31T06:35:41;4.67;;;2.37;;
22284;SDS011;11311;52.192;20.900;2023-08-31T06:38:10;7.15;;;3.10;;
22284;SDS011;11311;52.192;20.900;2023-08-31T06:40:40;3.13;;;2.92;;
22284;SDS011;11311;52.192;20.900;2023-08-31T06:43:10;4.95;;;3.47;;
22284;SDS011;11311;52.192;20.900;2023-08-31T06:45:39;6.65;;;3.40;;
22284;SDS011;11311;52.192;20.900;2023-08-31T06:48:08;4.60;;;3.22;;
22284;SDS011;11311;52.192;20.900;2023-08-31T06:50:37;5.20;;;3.40;;
22284;SDS011;11311;52.192;20.900;2023-08-31T06:53:06;6.75;;;3.00;;
22284;SDS011;11311;52.192;20.900;2023-08-31T06:55:35;3.55;;;3.25;;
22284;SDS011;11311;52.192;20.900;2023-08-31T06:58:05;3.55;;;3.25;;
22284;SDS011;11311;52.192;20.900;2023-08-31T07:00:34;3.13;;;2.92;;
22284;SDS011;11311;52.192;20.900;2023-08-31T07:03:03;5.32;;;3.42;;
22284;SDS011;11311;52.192;20.900;2023-08-31T07:08:03;3.60;;;3.30;;
22284;SDS011;11311;52.192;20.900;2023-08-31T07:10:32;2.97;;;2.40;;
22284;SDS011;11311;52.192;20.900;2023-08-31T07:13:03;4.28;;;2.53;;
22284;SDS011;11311;52.192;20.900;2023-08-31T07:15:34;3.40;;;2.70;;
22284;SDS011;11311;52.192;20.900;2023-08-31T07:18:03;2.55;;;2.35;;
22284;SDS011;11311;52.192;20.900;2023-08-31T07:20:32;3.27;;;2.77;;
22284;SDS011;11311;52.192;20.900;2023-08-31T07:23:01;5.13;;;2.30;;
22284;SDS011;11311;52.192;20.900;2023-08-31T07:25:31;2.65;;;2.15;;
22284;SDS011;11311;52.192;20.900;2023-08-31T07:28:00;2.08;;;1.80;;
22284;SDS011;11311;52.192;20.900;2023-08-31T07:30:30;2.65;;;2.35;;
22284;SDS011;11311;52.192;20.900;2023-08-31T07:35:43;2.90;;;2.10;;
22284;SDS011;11311;52.192;20.900;2023-08-31T07:38:12;2.97;;;1.33;;
22284;SDS011;11311;52.192;20.900;2023-08-31T07:40:41;2.42;;;1.80;;
22284;SDS011;11311;52.192;20.900;2023-08-31T07:43:10;2.77;;;2.10;;
22284;SDS011;11311;52.192;20.900;2023-08-31T07:45:39;4.90;;;2.80;;
22284;SDS011;11311;52.192;20.900;2023-08-31T07:48:10;2.15;;;1.95;;
22284;SDS011;11311;52.192;20.900;2023-08-31T07:50:40;2.47;;;1.83;;
22284;SDS011;11311;52.192;20.900;2023-08-31T07:55:37;3.97;;;1.73;;
22284;SDS011;11311;52.192;20.900;2023-08-31T07:58:07;3.60;;;1.65;;
22284;SDS011;11311;52.192;20.900;2023-08-31T08:00:36;4.00;;;1.50;;
22284;SDS011;11311;52.192;20.900;2023-08-31T08:03:05;4.75;;;1.67;;
22284;SDS011;11311;52.192;20.900;2023-08-31T08:05:36;1.37;;;1.27;;
22284;SDS011;11311;52.192;20.900;2023-08-31T08:08:06;1.65;;;1.40;;
22284;SDS011;11311;52.192;20.900;2023-08-31T08:10:35;3.80;;;1.80;;
22284;SDS011;11311;52.192;20.900;2023-08-31T08:13:03;2.15;;;1.50;;
22284;SDS011;11311;52.192;20.900;2023-08-31T08:15:32;4.85;;;1.40;;
22284;SDS011;11311;52.192;20.900;2023-08-31T08:18:01;3.88;;;1.90;;
22284;SDS011;11311;52.192;20.900;2023-08-31T08:20:31;9.32;;;2.10;;
22284;SDS011;11311;52.192;20.900;2023-08-31T08:23:01;2.60;;;1.92;;
22284;SDS011;11311;52.192;20.900;2023-08-31T08:25:29;2.80;;;2.10;;
22284;SDS011;11311;52.192;20.900;2023-08-31T08:27:58;3.10;;;2.00;;
22284;SDS011;11311;52.192;20.900;2023-08-31T08:30:27;4.05;;;1.88;;
22284;SDS011;11311;52.192;20.900;2023-08-31T08:32:56;2.47;;;2.15;;
22284;SDS011;11311;52.192;20.900;2023-08-31T08:35:26;3.63;;;2.35;;
22284;SDS011;11311;52.192;20.900;2023-08-31T08:37:55;4.88;;;2.20;;
22284;SDS011;11311;52.192;20.900;2023-08-31T08:40:24;2.75;;;2.03;;
22284;SDS011;11311;52.192;20.900;2023-08-31T08:42:53;3.53;;;2.03;;
22284;SDS011;11311;52.192;20.900;2023-08-31T08:45:24;2.88;;;2.53;;
22284;SDS011;11311;52.192;20.900;2023-08-31T08:47:53;1.98;;;1.88;;
22284;SDS011;11311;52.192;20.900;2023-08-31T08:50:23;5.38;;;2.58;;
22284;SDS011;11311;52.192;20.900;2023-08-31T08:52:52;4.10;;;2.00;;
22284;SDS011;11311;52.192;20.900;2023-08-31T08:55:21;5.03;;;2.13;;
22284;SDS011;11311;52.192;20.900;2023-08-31T08:57:51;4.50;;;2.00;;
22284;SDS011;11311;52.192;20.900;2023-08-31T09:00:20;5.65;;;2.50;;
22284;SDS011;11311;52.192;20.900;2023-08-31T09:02:49;3.55;;;2.20;;
22284;SDS011;11311;52.192;20.900;2023-08-31T09:05:18;4.00;;;2.17;;
22284;SDS011;11311;52.192;20.900;2023-08-31T09:08:03;4.25;;;2.28;;
22284;SDS011;11311;52.192;20.900;2023-08-31T09:10:35;2.95;;;1.95;;
22284;SDS011;11311;52.192;20.900;2023-08-31T09:13:09;3.55;;;2.17;;
22284;SDS011;11311;52.192;20.900;2023-08-31T09:15:39;5.05;;;2.78;;
22284;SDS011;11311;52.192;20.900;2023-08-31T09:20:45;8.18;;;1.90;;
22284;SDS011;11311;52.192;20.900;2023-08-31T09:23:14;6.40;;;1.60;;
22284;SDS011;11311;52.192;20.900;2023-08-31T09:25:44;2.80;;;1.70;;
22284;SDS011;11311;52.192;20.900;2023-08-31T09:28:18;2.35;;;1.60;;
22284;SDS011;11311;52.192;20.900;2023-08-31T09:30:50;1.80;;;1.67;;
22284;SDS011;11311;52.192;20.900;2023-08-31T09:33:20;4.88;;;2.15;;
22284;SDS011;11311;52.192;20.900;2023-08-31T09:35:50;3.33;;;2.20;;
22284;SDS011;11311;52.192;20.900;2023-08-31T09:38:19;5.25;;;2.53;;
22284;SDS011;11311;52.192;20.900;2023-08-31T09:40:48;3.45;;;2.13;;
22284;SDS011;11311;52.192;20.900;2023-08-31T09:43:22;5.32;;;2.15;;
22284;SDS011;11311;52.192;20.900;2023-08-31T09:45:51;3.17;;;1.52;;
22284;SDS011;11311;52.192;20.900;2023-08-31T09:48:21;5.30;;;1.80;;
22284;SDS011;11311;52.192;20.900;2023-08-31T09:50:51;5.60;;;2.40;;
22284;SDS011;11311;52.192;20.900;2023-08-31T09:53:20;4.22;;;2.10;;
22284;SDS011;11311;52.192;20.900;2023-08-31T09:55:51;2.38;;;1.77;;
22284;SDS011;11311;52.192;20.900;2023-08-31T09:58:20;2.17;;;1.90;;
22284;SDS011;11311;52.192;20.900;2023-08-31T10:00:51;2.53;;;1.63;;
22284;SDS011;11311;52.192;20.900;2023-08-31T10:03:21;3.78;;;2.08;;
22284;SDS011;11311;52.192;20.900;2023-08-31T10:05:50;5.72;;;1.85;;
22284;SDS011;11311;52.192;20.900;2023-08-31T10:08:19;2.10;;;1.88;;
22284;SDS011;11311;52.192;20.900;2023-08-31T10:10:48;4.65;;;1.92;;
22284;SDS011;11311;52.192;20.900;2023-08-31T10:13:16;3.63;;;2.05;;
22284;SDS011;11311;52.192;20.900;2023-08-31T10:15:49;2.85;;;1.65;;
22284;SDS011;11311;52.192;20.900;2023-08-31T10:18:18;9.77;;;1.90;;
22284;SDS011;11311;52.192;20.900;2023-08-31T10:20:48;5.43;;;2.55;;
22284;SDS011;11311;52.192;20.900;2023-08-31T10:23:17;3.70;;;1.75;;
22284;SDS011;11311;52.192;20.900;2023-08-31T10:26:02;3.25;;;1.80;;
22284;SDS011;11311;52.192;20.900;2023-08-31T10:28:41;4.47;;;2.72;;
22284;SDS011;11311;52.192;20.900;2023-08-31T10:31:15;1.50;;;1.40;;
22284;SDS011;11311;52.192;20.900;2023-08-31T10:33:45;2.42;;;1.88;;
22284;SDS011;11311;52.192;20.900;2023-08-31T10:36:15;4.20;;;2.13;;
22284;SDS011;11311;52.192;20.900;2023-08-31T10:38:45;2.30;;;1.52;;
22284;SDS011;11311;52.192;20.900;2023-08-31T10:41:18;7.38;;;1.90;;
22284;SDS011;11311;52.192;20.900;2023-08-31T10:43:51;2.20;;;1.95;;
22284;SDS011;11311;52.192;20.900;2023-08-31T10:46:31;2.35;;;1.90;;
22284;SDS011;11311;52.192;20.900;2023-08-31T10:49:12;5.05;;;2.25;;
22284;SDS011;11311;52.192;20.900;2023-08-31T10:51:42;4.50;;;2.17;;
22284;SDS011;11311;52.192;20.900;2023-08-31T10:56:55;4.35;;;2.17;;
22284;SDS011;11311;52.192;20.900;2023-08-31T10:59:44;6.18;;;2.20;;
22284;SDS011;11311;52.192;20.900;2023-08-31T11:02:35;4.22;;;2.22;;
22284;SDS011;11311;52.192;20.900;2023-08-31T11:05:07;5.97;;;2.20;;
22284;SDS011;11311;52.192;20.900;2023-08-31T11:07:38;7.63;;;2.10;;
22284;SDS011;11311;52.192;20.900;2023-08-31T11:10:09;4.82;;;1.73;;
22284;SDS011;11311;52.192;20.900;2023-08-31T11:12:40;4.47;;;2.10;;
22284;SDS011;11311;52.192;20.900;2023-08-31T11:15:11;3.58;;;1.77;;
22284;SDS011;11311;52.192;20.900;2023-08-31T11:17:42;2.75;;;1.75;;
22284;SDS011;11311;52.192;20.900;2023-08-31T11:20:13;2.92;;;2.20;;
22284;SDS011;11311;52.192;20.900;2023-08-31T11:22:44;2.97;;;2.25;;
22284;SDS011;11311;52.192;20.900;2023-08-31T11:25:13;2.60;;;2.40;;
22284;SDS011;11311;52.192;20.900;2023-08-31T11:27:52;2.95;;;2.35;;
22284;SDS011;11311;52.192;20.900;2023-08-31T11:30:22;5.15;;;2.35;;
22284;SDS011;11311;52.192;20.900;2023-08-31T11:32:52;5.03;;;2.17;;
22284;SDS011;11311;52.192;20.900;2023-08-31T11:35:21;4.32;;;1.92;;
22284;SDS011;11311;52.192;20.900;2023-08-31T11:37:50;2.85;;;1.90;;
22284;SDS011;11311;52.192;20.900;2023-08-31T11:40:20;2.97;;;1.95;;
22284;SDS011;11311;52.192;20.900;2023-08-31T11:42:49;3.67;;;2.08;;
22284;SDS011;11311;52.192;20.900;2023-08-31T11:45:18;2.15;;;2.00;;
22284;SDS011;11311;52.192;20.900;2023-08-31T11:47:47;2.40;;;2.20;;
22284;SDS011;11311;52.192;20.900;2023-08-31T11:50:18;4.05;;;2.17;;
22284;SDS011;11311;52.192;20.900;2023-08-31T11:52:48;3.17;;;2.38;;
22284;SDS011;11311;52.192;20.900;2023-08-31T11:55:18;8.35;;;2.63;;
22284;SDS011;11311;52.192;20.900;2023-08-31T12:00:18;2.78;;;2.33;;
22284;SDS011;11311;52.192;20.900;2023-08-31T12:05:47;2.35;;;2.15;;
22284;SDS011;11311;52.192;20.900;2023-08-31T12:08:23;4.70;;;2.20;;
22284;SDS011;11311;52.192;20.900;2023-08-31T12:10:52;8.18;;;2.40;;
22284;SDS011;11311;52.192;20.900;2023-08-31T12:13:25;4.10;;;2.38;;
22284;SDS011;11311;52.192;20.900;2023-08-31T12:15:57;3.28;;;2.50;;
22284;SDS011;11311;52.192;20.900;2023-08-31T12:18:26;2.47;;;2.10;;
22284;SDS011;11311;52.192;20.900;2023-08-31T12:21:00;7.35;;;2.60;;
22284;SDS011;11311;52.192;20.900;2023-08-31T12:23:29;3.50;;;2.30;;
22284;SDS011;11311;52.192;20.900;2023-08-31T12:25:58;2.38;;;2.15;;
22284;SDS011;11311;52.192;20.900;2023-08-31T12:28:26;6.18;;;2.20;;
22284;SDS011;11311;52.192;20.900;2023-08-31T12:30:55;2.10;;;2.00;;
22284;SDS011;11311;52.192;20.900;2023-08-31T12:33:24;2.20;;;2.00;;
22284;SDS011;11311;52.192;20.900;2023-08-31T12:35:54;7.40;;;2.50;;
22284;SDS011;11311;52.192;20.900;2023-08-31T12:38:24;2.40;;;2.20;;
22284;SDS011;11311;52.192;20.900;2023-08-31T12:40:53;3.15;;;2.88;;
22284;SDS011;11311;52.192;20.900;2023-08-31T12:43:22;4.13;;;2.30;;
22284;SDS011;11311;52.192;20.900;2023-08-31T12:45:51;3.85;;;2.15;;
22284;SDS011;11311;52.192;20.900;2023-08-31T12:48:20;3.88;;;2.63;;
22284;SDS011;11311;52.192;20.900;2023-08-31T12:50:48;2.97;;;2.05;;
22284;SDS011;11311;52.192;20.900;2023-08-31T12:53:18;2.70;;;2.33;;
22284;SDS011;11311;52.192;20.900;2023-08-31T12:55:48;2.42;;;2.22;;
22284;SDS011;11311;52.192;20.900;2023-08-31T12:58:17;5.78;;;2.58;;
22284;SDS011;11311;52.192;20.900;2023-08-31T13:00:46;2.70;;;2.47;;
22284;SDS011;11311;52.192;20.900;2023-08-31T13:03:16;2.50;;;2.28;;
22284;SDS011;11311;52.192;20.900;2023-08-31T13:05:45;3.03;;;2.33;;
22284;SDS011;11311;52.192;20.900;2023-08-31T13:08:14;3.72;;;2.65;;
22284;SDS011;11311;52.192;20.900;2023-08-31T13:10:43;6.30;;;2.38;;
22284;SDS011;11311;52.192;20.900;2023-08-31T13:13:13;2.78;;;2.30;;
22284;SDS011;11311;52.192;20.900;2023-08-31T13:15:42;3.30;;;2.22;;
22284;SDS011;11311;52.192;20.900;2023-08-31T13:18:12;4.60;;;2.42;;
22284;SDS011;11311;52.192;20.900;2023-08-31T13:20:48;2.77;;;2.37;;
22284;SDS011;11311;52.192;20.900;2023-08-31T13:23:17;2.75;;;2.30;;
22284;SDS011;11311;52.192;20.900;2023-08-31T13:25:45;3.15;;;2.55;;
22284;SDS011;11311;52.192;20.900;2023-08-31T13:28:16;5.22;;;1.98;;
22284;SDS011;11311;52.192;20.900;2023-08-31T13:30:45;3.05;;;1.75;;
22284;SDS011;11311;52.192;20.900;2023-08-31T13:33:14;3.17;;;2.22;;
22284;SDS011;11311;52.192;20.900;2023-08-31T13:35:44;3.45;;;2.33;;
22284;SDS011;11311;52.192;20.900;2023-08-31T13:38:14;8.35;;;2.40;;
22284;SDS011;11311;52.192;20.900;2023-08-31T13:40:42;5.97;;;2.20;;
22284;SDS011;11311;52.192;20.900;2023-08-31T13:43:11;9.90;;;2.70;;
22284;SDS011;11311;52.192;20.900;2023-08-31T13:45:42;3.08;;;2.40;;
22284;SDS011;11311;52.192;20.900;2023-08-31T13:48:11;4.88;;;2.95;;
22284;SDS011;11311;52.192;20.900;2023-08-31T13:50:40;4.13;;;2.42;;
22284;SDS011;11311;52.192;20.900;2023-08-31T13:53:09;4.25;;;2.88;;
22284;SDS011;11311;52.192;20.900;2023-08-31T13:55:37;2.85;;;2.65;;
22284;SDS011;11311;52.192;20.900;2023-08-31T13:58:06;3.65;;;3.33;;
22284;SDS011;11311;52.192;20.900;2023-08-31T14:00:36;6.15;;;3.80;;
22284;SDS011;11311;52.192;20.900;2023-08-31T14:03:07;5.97;;;4.10;;
22284;SDS011;11311;52.192;20.900;2023-08-31T14:05:59;7.97;;;3.88;;
22284;SDS011;11311;52.192;20.900;2023-08-31T14:08:32;6.28;;;4.60;;
22284;SDS011;11311;52.192;20.900;2023-08-31T14:11:02;5.78;;;5.25;;
22284;SDS011;11311;52.192;20.900;2023-08-31T14:13:30;5.20;;;4.53;;
22284;SDS011;11311;52.192;20.900;2023-08-31T14:15:59;7.10;;;5.28;;
22284;SDS011;11311;52.192;20.900;2023-08-31T14:18:30;5.75;;;4.60;;
22284;SDS011;11311;52.192;20.900;2023-08-31T14:20:59;4.95;;;4.22;;
22284;SDS011;11311;52.192;20.900;2023-08-31T14:23:28;5.10;;;4.50;;
22284;SDS011;11311;52.192;20.900;2023-08-31T14:26:00;9.93;;;4.85;;
22284;SDS011;11311;52.192;20.900;2023-08-31T14:28:29;5.32;;;4.30;;
22284;SDS011;11311;52.192;20.900;2023-08-31T14:31:03;5.60;;;4.15;;
22284;SDS011;11311;52.192;20.900;2023-08-31T14:33:34;8.02;;;4.72;;
22284;SDS011;11311;52.192;20.900;2023-08-31T14:36:03;15.90;;;6.10;;
22284;SDS011;11311;52.192;20.900;2023-08-31T14:38:32;6.20;;;4.70;;
22284;SDS011;11311;52.192;20.900;2023-08-31T14:41:01;12.93;;;4.93;;
22284;SDS011;11311;52.192;20.900;2023-08-31T14:43:31;6.47;;;5.72;;
22284;SDS011;11311;52.192;20.900;2023-08-31T14:46:00;8.00;;;5.85;;
22284;SDS011;11311;52.192;20.900;2023-08-31T14:48:31;8.30;;;5.35;;
22284;SDS011;11311;52.192;20.900;2023-08-31T14:51:01;6.50;;;5.90;;
22284;SDS011;11311;52.192;20.900;2023-08-31T14:53:30;8.15;;;6.13;;
22284;SDS011;11311;52.192;20.900;2023-08-31T14:55:59;9.43;;;6.65;;
22284;SDS011;11311;52.192;20.900;2023-08-31T14:58:28;7.70;;;6.85;;
22284;SDS011;11311;52.192;20.900;2023-08-31T15:00:57;7.25;;;6.47;;
22284;SDS011;11311;52.192;20.900;2023-08-31T15:03:26;7.88;;;7.07;;
22284;SDS011;11311;52.192;20.900;2023-08-31T15:05:55;8.10;;;7.20;;
22284;SDS011;11311;52.192;20.900;2023-08-31T15:08:34;8.15;;;7.35;;
22284;SDS011;11311;52.192;20.900;2023-08-31T15:11:05;8.45;;;6.72;;
22284;SDS011;11311;52.192;20.900;2023-08-31T15:13:35;6.57;;;5.97;;
22284;SDS011;11311;52.192;20.900;2023-08-31T15:16:05;7.73;;;6.93;;
22284;SDS011;11311;52.192;20.900;2023-08-31T15:18:34;7.60;;;6.80;;
22284;SDS011;11311;52.192;20.900;2023-08-31T15:21:03;7.65;;;6.75;;
22284;SDS011;11311;52.192;20.900;2023-08-31T15:23:33;8.10;;;7.10;;
22284;SDS011;11311;52.192;20.900;2023-08-31T15:26:02;13.13;;;6.88;;
22284;SDS011;11311;52.192;20.900;2023-08-31T15:28:31;9.43;;;7.22;;
22284;SDS011;11311;52.192;20.900;2023-08-31T15:31:00;8.98;;;8.23;;
22284;SDS011;11311;52.192;20.900;2023-08-31T15:33:29;11.15;;;7.85;;